Integrity — WDF4881 — position and weather

sailwx.info

Track history (hours):
 
Tides and Currents Weather Stations Pressure Air Temp Water Temp Dewpoint Dewpoint Depression Visibility Wind Speed Wind Dir Waves Ship Positions

Integrity

Owner: Canal Barge Company, Inc., Belle Chasse, LA. More information available from US FCC via Universal Licensing System and Coast Guard Vessel Documentation Center.

Last reported at 2016-Sep-17 22:33 UTC. Time now 2016-Sep-26 15:38 UTC.
Position N 29°51' W 091°56'.
Warning: this ship's position is 8 days out of date.

Length 19 m; draft 2.8 m.

Type: Towing. MMSI: 367456830.

Date/timePositionNaut miles runAvg speedWind from/ knotsBaromVisibWave heightAir tempDewpointWater temp
2016-Sep-17 22:33N 29°51' W 091°56'5 4.6
2016-Sep-17 21:34N 29°49' W 092°01'4 4.2
2016-Sep-17 20:33N 29°48' W 092°06'6 4.8
2016-Sep-17 19:16N 29°47' W 092°13'48 4.5
2016-Sep-17 08:30N 29°56' W 093°07'4 3.8
2016-Sep-17 07:34N 29°58' W 093°11'8 3.8
2016-Sep-17 05:33N 30°04' W 093°16'3 3.1
2016-Sep-17 04:33N 30°06' W 093°18'5 1.1
2016-Sep-17 00:33N 30°11' W 093°19'4 0.6
2016-Sep-16 17:33N 30°14' W 093°15'0 0.0
2016-Sep-16 15:33N 30°14' W 093°15'0 0.0
2016-Sep-16 12:33N 30°14' W 093°15'0 0.0
2016-Sep-16 09:33N 30°14' W 093°15'0 0.0
2016-Sep-16 07:33N 30°14' W 093°15'0 0.0
2016-Sep-16 03:33N 30°14' W 093°15'0 0.0
2016-Sep-16 02:33N 30°14' W 093°15'0 0.0
2016-Sep-16 00:33N 30°14' W 093°15'0 0.0
2016-Sep-15 22:33N 30°14' W 093°15'0 0.0
2016-Sep-15 21:34N 30°14' W 093°15'0 0.0
2016-Sep-15 20:33N 30°14' W 093°15'0 0.0
2016-Sep-15 18:33N 30°14' W 093°15'0 0.0
2016-Sep-15 12:34N 30°14' W 093°15'0 0.0
2016-Sep-15 11:33N 30°14' W 093°15'0 0.0
2016-Sep-15 04:33N 30°14' W 093°15'0 0.0
2016-Sep-15 03:33N 30°14' W 093°15'0 0.0
2016-Sep-15 01:33N 30°14' W 093°15'1 0.3
2016-Sep-14 22:33N 30°13' W 093°16'0 0.0
2016-Sep-14 21:33N 30°13' W 093°16'0 0.0
2016-Sep-14 17:33N 30°13' W 093°16'0 0.0
2016-Sep-14 16:33N 30°13' W 093°16'0 0.0
2016-Sep-14 13:34N 30°13' W 093°16'0 0.0
2016-Sep-14 12:33N 30°13' W 093°16'0 0.0
2016-Sep-14 10:33N 30°13' W 093°16'0 0.0
2016-Sep-14 09:33N 30°13' W 093°16'0 0.0
2016-Sep-14 08:33N 30°13' W 093°16'0 0.0
2016-Sep-14 07:33N 30°13' W 093°16'0 0.0
2016-Sep-14 06:34N 30°13' W 093°16'0 0.0
2016-Sep-14 03:33N 30°13' W 093°16'0 0.0
2016-Sep-13 22:33N 30°13' W 093°16'0 0.0
2016-Sep-13 20:33N 30°13' W 093°16'0 0.0
2016-Sep-13 18:33N 30°13' W 093°16'0 0.0
2016-Sep-13 17:33N 30°13' W 093°16'0 0.0
2016-Sep-13 16:33N 30°13' W 093°16'0 0.0
2016-Sep-13 11:33N 30°13' W 093°16'0 0.0
2016-Sep-13 09:33N 30°13' W 093°16'0 0.0
2016-Sep-13 07:33N 30°13' W 093°16'0 0.0
2016-Sep-13 06:34N 30°13' W 093°16'0 0.0
2016-Sep-13 04:34N 30°13' W 093°16'0 0.0
2016-Sep-13 02:33N 30°13' W 093°16'0 0.0
2016-Sep-12 23:33N 30°13' W 093°16'0 0.0
2016-Sep-12 21:34N 30°13' W 093°16'0 0.0
2016-Sep-12 19:33N 30°13' W 093°16'0 0.0
2016-Sep-12 17:34N 30°13' W 093°16'0 0.0
2016-Sep-12 14:33N 30°13' W 093°16'0 0.0
2016-Sep-12 13:33N 30°13' W 093°16'0 0.0
2016-Sep-12 12:33N 30°13' W 093°16'0 0.0
2016-Sep-12 11:33N 30°13' W 093°16'0 0.0
2016-Sep-12 10:34N 30°13' W 093°16'0 0.0
2016-Sep-12 07:33N 30°13' W 093°16'0 0.0
2016-Sep-12 06:33N 30°13' W 093°16'0 0.0
2016-Sep-12 03:33N 30°13' W 093°16'0 0.0
2016-Sep-12 01:33N 30°13' W 093°16'1 0.4
2016-Sep-11 23:33N 30°14' W 093°15'0 0.0
2016-Sep-11 22:33N 30°14' W 093°15'0 0.0
2016-Sep-11 21:33N 30°14' W 093°15'0 0.0
2016-Sep-11 20:33N 30°14' W 093°15'0 0.0
2016-Sep-11 19:34N 30°14' W 093°15'0 0.0
2016-Sep-11 18:33N 30°14' W 093°15'0 0.0
2016-Sep-11 17:33N 30°14' W 093°15'0 0.0
2016-Sep-11 16:33N 30°14' W 093°15'0 0.0
2016-Sep-11 15:34N 30°14' W 093°15'0 0.0
2016-Sep-11 14:33N 30°14' W 093°15'0 0.0
2016-Sep-11 13:34N 30°14' W 093°15'0 0.0
2016-Sep-11 12:33N 30°14' W 093°15'0 0.0
2016-Sep-11 11:33N 30°14' W 093°15'0 0.0
2016-Sep-11 10:33N 30°14' W 093°15'0 0.0
2016-Sep-11 08:33N 30°14' W 093°15'0 0.0
2016-Sep-11 07:34N 30°14' W 093°15'0 0.0
2016-Sep-11 03:34N 30°14' W 093°15'0 0.0
2016-Sep-11 02:33N 30°14' W 093°15'0 0.0
2016-Sep-11 01:33N 30°14' W 093°15'0 0.0
2016-Sep-11 00:33N 30°14' W 093°15'0 0.0
2016-Sep-10 23:33N 30°14' W 093°15'0 0.0
2016-Sep-10 22:33N 30°14' W 093°15'0 0.0
2016-Sep-10 21:33N 30°14' W 093°15'0 0.0
2016-Sep-10 20:33N 30°14' W 093°15'0 0.0
2016-Sep-10 19:33N 30°14' W 093°15'0 0.0
2016-Sep-10 18:34N 30°14' W 093°15'0 0.0
2016-Sep-10 17:33N 30°14' W 093°15'0 0.0
2016-Sep-10 16:32N 30°14' W 093°15'0 0.0
2016-Sep-10 15:33N 30°14' W 093°15'0 0.0
2016-Sep-10 14:33N 30°14' W 093°15'0 0.0
2016-Sep-10 13:33N 30°14' W 093°15'0 0.0
2016-Sep-10 12:33N 30°14' W 093°15'0 0.0
2016-Sep-10 11:34N 30°14' W 093°15'0 0.0
2016-Sep-10 10:33N 30°14' W 093°15'0 0.0
2016-Sep-10 09:33N 30°14' W 093°15'0 0.0
2016-Sep-10 08:33N 30°14' W 093°15'0 0.0
2016-Sep-10 07:33N 30°14' W 093°15'0 0.0
2016-Sep-10 06:33N 30°14' W 093°15'0 0.0
2016-Sep-10 05:32N 30°14' W 093°15'0 0.0
2016-Sep-10 04:34N 30°14' W 093°15'0 0.0
2016-Sep-10 03:33N 30°14' W 093°15'0 0.0
2016-Sep-10 02:33N 30°14' W 093°15'0 0.0
2016-Sep-10 01:33N 30°14' W 093°15'0 0.0
2016-Sep-10 00:33N 30°14' W 093°15'0 0.0
2016-Sep-09 23:33N 30°14' W 093°15'0 0.0
2016-Sep-09 22:33N 30°14' W 093°15'0 0.0
2016-Sep-09 21:34N 30°14' W 093°15'0 0.0
2016-Sep-09 20:33N 30°14' W 093°15'0 0.0
2016-Sep-09 19:33N 30°14' W 093°15'0 0.0
2016-Sep-09 18:33N 30°14' W 093°15'0 0.0
2016-Sep-09 17:31N 30°14' W 093°15'0 0.0
2016-Sep-09 16:33N 30°14' W 093°15'0 0.0
2016-Sep-09 15:32N 30°14' W 093°15'0 0.0
2016-Sep-09 14:33N 30°14' W 093°15'0 0.0
2016-Sep-09 13:32N 30°14' W 093°15'0 0.1
2016-Sep-09 12:33N 30°14' W 093°16'1 0.9
2016-Sep-09 11:34N 30°13' W 093°16'4 4.2
2016-Sep-09 10:33N 30°10' W 093°19'5 4.9
2016-Sep-09 09:33N 30°05' W 093°20'3 2.8
2016-Sep-09 08:33N 30°04' W 093°22'4 3.9
2016-Sep-09 07:33N 30°04' W 093°27'4 4.4
2016-Sep-09 06:34N 30°04' W 093°32'5 4.6
2016-Sep-09 05:34N 30°04' W 093°37'74 4.0
2016-Sep-08 11:14N 29°26' W 094°50'3 4.7
2016-Sep-08 10:32N 29°29' W 094°51'5 4.8
2016-Sep-08 09:33N 29°33' W 094°54'5 5.4
2016-Sep-08 08:33N 29°37' W 094°58'3 2.9
2016-Sep-08 07:33N 29°37' W 095°01'0 0.1
2016-Sep-08 06:34N 29°37' W 095°01'0 0.0
2016-Sep-08 05:33N 29°37' W 095°01'0 0.1
2016-Sep-08 04:32N 29°37' W 095°01'0 0.0
2016-Sep-08 03:34N 29°37' W 095°01'0 0.0
2016-Sep-08 02:33N 29°37' W 095°01'0 0.0
2016-Sep-08 01:34N 29°37' W 095°01'0 0.0
2016-Sep-08 00:33N 29°37' W 095°01'0 0.0
2016-Sep-07 23:33N 29°37' W 095°01'  
Track history (hours):
 
Tides and Currents Weather Stations Pressure Air Temp Water Temp Dewpoint Dewpoint Depression Visibility Wind Speed Wind Dir Waves Ship Positions

Integrity

Owner: Canal Barge Company, Inc., Belle Chasse, LA. More information available from US FCC via Universal Licensing System and Coast Guard Vessel Documentation Center.

Last reported at 2016-Sep-17 22:33 UTC. Time now 2016-Sep-26 15:38 UTC.
Position N 29°51' W 091°56'.
Warning: this ship's position is 8 days out of date.

Length 19 m; draft 2.8 m.

Type: Towing. MMSI: 367456830.

Date/timePositionNaut miles runAvg speedWind from/ knotsBaromVisibWave heightAir tempDewpointWater temp
2016-Sep-17 22:33N 29°51' W 091°56'5 4.6
2016-Sep-17 21:34N 29°49' W 092°01'4 4.2
2016-Sep-17 20:33N 29°48' W 092°06'6 4.8
2016-Sep-17 19:16N 29°47' W 092°13'48 4.5
2016-Sep-17 08:30N 29°56' W 093°07'4 3.8
2016-Sep-17 07:34N 29°58' W 093°11'8 3.8
2016-Sep-17 05:33N 30°04' W 093°16'3 3.1
2016-Sep-17 04:33N 30°06' W 093°18'5 1.1
2016-Sep-17 00:33N 30°11' W 093°19'4 0.6
2016-Sep-16 17:33N 30°14' W 093°15'0 0.0
2016-Sep-16 15:33N 30°14' W 093°15'0 0.0
2016-Sep-16 12:33N 30°14' W 093°15'0 0.0
2016-Sep-16 09:33N 30°14' W 093°15'0 0.0
2016-Sep-16 07:33N 30°14' W 093°15'0 0.0
2016-Sep-16 03:33N 30°14' W 093°15'0 0.0
2016-Sep-16 02:33N 30°14' W 093°15'0 0.0
2016-Sep-16 00:33N 30°14' W 093°15'0 0.0
2016-Sep-15 22:33N 30°14' W 093°15'0 0.0
2016-Sep-15 21:34N 30°14' W 093°15'0 0.0
2016-Sep-15 20:33N 30°14' W 093°15'0 0.0
2016-Sep-15 18:33N 30°14' W 093°15'0 0.0
2016-Sep-15 12:34N 30°14' W 093°15'0 0.0
2016-Sep-15 11:33N 30°14' W 093°15'0 0.0
2016-Sep-15 04:33N 30°14' W 093°15'0 0.0
2016-Sep-15 03:33N 30°14' W 093°15'0 0.0
2016-Sep-15 01:33N 30°14' W 093°15'1 0.3
2016-Sep-14 22:33N 30°13' W 093°16'0 0.0
2016-Sep-14 21:33N 30°13' W 093°16'0 0.0
2016-Sep-14 17:33N 30°13' W 093°16'0 0.0
2016-Sep-14 16:33N 30°13' W 093°16'0 0.0
2016-Sep-14 13:34N 30°13' W 093°16'0 0.0
2016-Sep-14 12:33N 30°13' W 093°16'0 0.0
2016-Sep-14 10:33N 30°13' W 093°16'0 0.0
2016-Sep-14 09:33N 30°13' W 093°16'0 0.0
2016-Sep-14 08:33N 30°13' W 093°16'0 0.0
2016-Sep-14 07:33N 30°13' W 093°16'0 0.0
2016-Sep-14 06:34N 30°13' W 093°16'0 0.0
2016-Sep-14 03:33N 30°13' W 093°16'0 0.0
2016-Sep-13 22:33N 30°13' W 093°16'0 0.0
2016-Sep-13 20:33N 30°13' W 093°16'0 0.0
2016-Sep-13 18:33N 30°13' W 093°16'0 0.0
2016-Sep-13 17:33N 30°13' W 093°16'0 0.0
2016-Sep-13 16:33N 30°13' W 093°16'0 0.0
2016-Sep-13 11:33N 30°13' W 093°16'0 0.0
2016-Sep-13 09:33N 30°13' W 093°16'0 0.0
2016-Sep-13 07:33N 30°13' W 093°16'0 0.0
2016-Sep-13 06:34N 30°13' W 093°16'0 0.0
2016-Sep-13 04:34N 30°13' W 093°16'0 0.0
2016-Sep-13 02:33N 30°13' W 093°16'0 0.0
2016-Sep-12 23:33N 30°13' W 093°16'0 0.0
2016-Sep-12 21:34N 30°13' W 093°16'0 0.0
2016-Sep-12 19:33N 30°13' W 093°16'0 0.0
2016-Sep-12 17:34N 30°13' W 093°16'0 0.0
2016-Sep-12 14:33N 30°13' W 093°16'0 0.0
2016-Sep-12 13:33N 30°13' W 093°16'0 0.0
2016-Sep-12 12:33N 30°13' W 093°16'0 0.0
2016-Sep-12 11:33N 30°13' W 093°16'0 0.0
2016-Sep-12 10:34N 30°13' W 093°16'0 0.0
2016-Sep-12 07:33N 30°13' W 093°16'0 0.0
2016-Sep-12 06:33N 30°13' W 093°16'0 0.0
2016-Sep-12 03:33N 30°13' W 093°16'0 0.0
2016-Sep-12 01:33N 30°13' W 093°16'1 0.4
2016-Sep-11 23:33N 30°14' W 093°15'0 0.0
2016-Sep-11 22:33N 30°14' W 093°15'0 0.0
2016-Sep-11 21:33N 30°14' W 093°15'0 0.0
2016-Sep-11 20:33N 30°14' W 093°15'0 0.0
2016-Sep-11 19:34N 30°14' W 093°15'0 0.0
2016-Sep-11 18:33N 30°14' W 093°15'0 0.0
2016-Sep-11 17:33N 30°14' W 093°15'0 0.0
2016-Sep-11 16:33N 30°14' W 093°15'0 0.0
2016-Sep-11 15:34N 30°14' W 093°15'0 0.0
2016-Sep-11 14:33N 30°14' W 093°15'0 0.0
2016-Sep-11 13:34N 30°14' W 093°15'0 0.0
2016-Sep-11 12:33N 30°14' W 093°15'0 0.0
2016-Sep-11 11:33N 30°14' W 093°15'0 0.0
2016-Sep-11 10:33N 30°14' W 093°15'0 0.0
2016-Sep-11 08:33N 30°14' W 093°15'0 0.0
2016-Sep-11 07:34N 30°14' W 093°15'0 0.0
2016-Sep-11 03:34N 30°14' W 093°15'0 0.0
2016-Sep-11 02:33N 30°14' W 093°15'0 0.0
2016-Sep-11 01:33N 30°14' W 093°15'0 0.0
2016-Sep-11 00:33N 30°14' W 093°15'0 0.0
2016-Sep-10 23:33N 30°14' W 093°15'0 0.0
2016-Sep-10 22:33N 30°14' W 093°15'0 0.0
2016-Sep-10 21:33N 30°14' W 093°15'0 0.0
2016-Sep-10 20:33N 30°14' W 093°15'0 0.0
2016-Sep-10 19:33N 30°14' W 093°15'0 0.0
2016-Sep-10 18:34N 30°14' W 093°15'0 0.0
2016-Sep-10 17:33N 30°14' W 093°15'0 0.0
2016-Sep-10 16:32N 30°14' W 093°15'0 0.0
2016-Sep-10 15:33N 30°14' W 093°15'0 0.0
2016-Sep-10 14:33N 30°14' W 093°15'0 0.0
2016-Sep-10 13:33N 30°14' W 093°15'0 0.0
2016-Sep-10 12:33N 30°14' W 093°15'0 0.0
2016-Sep-10 11:34N 30°14' W 093°15'0 0.0
2016-Sep-10 10:33N 30°14' W 093°15'0 0.0
2016-Sep-10 09:33N 30°14' W 093°15'0 0.0
2016-Sep-10 08:33N 30°14' W 093°15'0 0.0
2016-Sep-10 07:33N 30°14' W 093°15'0 0.0
2016-Sep-10 06:33N 30°14' W 093°15'0 0.0
2016-Sep-10 05:32N 30°14' W 093°15'0 0.0
2016-Sep-10 04:34N 30°14' W 093°15'0 0.0
2016-Sep-10 03:33N 30°14' W 093°15'0 0.0
2016-Sep-10 02:33N 30°14' W 093°15'0 0.0
2016-Sep-10 01:33N 30°14' W 093°15'0 0.0
2016-Sep-10 00:33N 30°14' W 093°15'0 0.0
2016-Sep-09 23:33N 30°14' W 093°15'0 0.0
2016-Sep-09 22:33N 30°14' W 093°15'0 0.0
2016-Sep-09 21:34N 30°14' W 093°15'0 0.0
2016-Sep-09 20:33N 30°14' W 093°15'0 0.0
2016-Sep-09 19:33N 30°14' W 093°15'0 0.0
2016-Sep-09 18:33N 30°14' W 093°15'0 0.0
2016-Sep-09 17:31N 30°14' W 093°15'0 0.0
2016-Sep-09 16:33N 30°14' W 093°15'0 0.0
2016-Sep-09 15:32N 30°14' W 093°15'0 0.0
2016-Sep-09 14:33N 30°14' W 093°15'0 0.0
2016-Sep-09 13:32N 30°14' W 093°15'0 0.1
2016-Sep-09 12:33N 30°14' W 093°16'1 0.9
2016-Sep-09 11:34N 30°13' W 093°16'4 4.2
2016-Sep-09 10:33N 30°10' W 093°19'5 4.9
2016-Sep-09 09:33N 30°05' W 093°20'3 2.8
2016-Sep-09 08:33N 30°04' W 093°22'4 3.9
2016-Sep-09 07:33N 30°04' W 093°27'4 4.4
2016-Sep-09 06:34N 30°04' W 093°32'5 4.6
2016-Sep-09 05:34N 30°04' W 093°37'74 4.0
2016-Sep-08 11:14N 29°26' W 094°50'3 4.7
2016-Sep-08 10:32N 29°29' W 094°51'5 4.8
2016-Sep-08 09:33N 29°33' W 094°54'5 5.4
2016-Sep-08 08:33N 29°37' W 094°58'3 2.9
2016-Sep-08 07:33N 29°37' W 095°01'0 0.1
2016-Sep-08 06:34N 29°37' W 095°01'0 0.0
2016-Sep-08 05:33N 29°37' W 095°01'0 0.1
2016-Sep-08 04:32N 29°37' W 095°01'0 0.0
2016-Sep-08 03:34N 29°37' W 095°01'0 0.0
2016-Sep-08 02:33N 29°37' W 095°01'0 0.0
2016-Sep-08 01:34N 29°37' W 095°01'0 0.0
2016-Sep-08 00:33N 29°37' W 095°01'0 0.0
2016-Sep-07 23:33N 29°37' W 095°01'  

Dump ship's entire track history